Siloam Springs, AR (72761)

6:37 AM CDT on August 27, 2016 (GMT -0500)
Lake Forrest Heights | | Change Station

Elev 1148 ft 36.22 °N, 94.54 °W | Updated 20 seconds ago

Clear
Clear
70.0 °F
Feels Like 70.0 °F
N
0.0
Wind Variable Wind from WSW

Today
High -- | Low -- °F
--% Chance of Precip.
Yesterday
High -- | Low -- °F
Precip. -- in
Pressure 30.09 in
Visibility 5.0 miles
Clouds Clear
Dew Point 68 °F
Humidity 94%
Rainfall 0.00 in
Snow Depth Not available.
6:46 AM 7:52 PM
Waning Crescent, 25% visible
METAR KSLG 271135Z AUTO 08003KT 5SM CLR 21/16 A3009 RMK AO1
Pressure 30.09 in
Visibility 5.0 miles
Clouds Clear
Dew Point 68 °F
Humidity 94%
Rainfall 0.00 in
Snow Depth Not available.
6:46 AM 7:52 PM
Waning Crescent, 25% visible
METAR KSLG 271135Z AUTO 08003KT 5SM CLR 21/16 A3009 RMK AO1

10-Day Weather Forecast

Almanac

Astronomy

Aug. 27, 2016 Rise Set
Actual Time
Civil Twilight
Nautical Twilight
Astronomical Twilight
Moon
Length of Visible Light
Length of Day
Tomorrow will be .
, % of the Moon is Illuminated

Today's Extremes

State Highs State Lows

Community

WunderPhotos

Upload Photos

1,935,322 photos uploaded!

WunderBlog® & News

Nearby

Air Quality

  Air Quality AQ Index Pollutant
Not available.

Snow Depth

Station Depth Elevation

Earthquake Activity

City Distance Mag. Time & Date
Minimum magnitude displayed is 2.5.

Coastal Water Temperatures

Place Temperature

Stations

Nearby Weather Stations

Station Location Temp. Windchill Dew Point Humidity Wind Precip. Elev Updated Type
                   

Watches & Warnings

There are currently no watches in effect.